sensor_id;sensor_type;location;lat;lon;timestamp;P1;durP1;ratioP1;P2;durP2;ratioP2
56599;SDS011;51832;48.152;11.530;2023-03-12T00:02:12;3.55;;;2.65;;
56599;SDS011;51832;48.152;11.530;2023-03-12T00:07:13;5.72;;;2.90;;
56599;SDS011;51832;48.152;11.530;2023-03-12T00:12:14;2.90;;;2.53;;
56599;SDS011;51832;48.152;11.530;2023-03-12T00:17:14;3.20;;;2.75;;
56599;SDS011;51832;48.152;11.530;2023-03-12T00:22:14;3.95;;;3.08;;
56599;SDS011;51832;48.152;11.530;2023-03-12T00:27:15;4.47;;;2.97;;
56599;SDS011;51832;48.152;11.530;2023-03-12T00:32:16;6.25;;;4.20;;
56599;SDS011;51832;48.152;11.530;2023-03-12T00:37:16;6.50;;;3.38;;
56599;SDS011;51832;48.152;11.530;2023-03-12T00:42:17;6.13;;;3.40;;
56599;SDS011;51832;48.152;11.530;2023-03-12T00:47:18;6.82;;;3.20;;
56599;SDS011;51832;48.152;11.530;2023-03-12T00:52:18;6.88;;;4.13;;
56599;SDS011;51832;48.152;11.530;2023-03-12T00:57:19;7.72;;;4.10;;
56599;SDS011;51832;48.152;11.530;2023-03-12T01:02:19;7.00;;;3.90;;
56599;SDS011;51832;48.152;11.530;2023-03-12T01:07:20;7.28;;;3.47;;
56599;SDS011;51832;48.152;11.530;2023-03-12T01:12:20;3.47;;;3.10;;
56599;SDS011;51832;48.152;11.530;2023-03-12T01:17:21;6.43;;;3.30;;
56599;SDS011;51832;48.152;11.530;2023-03-12T01:22:21;3.78;;;2.67;;
56599;SDS011;51832;48.152;11.530;2023-03-12T01:27:22;4.80;;;3.20;;
56599;SDS011;51832;48.152;11.530;2023-03-12T01:32:22;5.72;;;3.15;;
56599;SDS011;51832;48.152;11.530;2023-03-12T01:37:23;5.05;;;3.28;;
56599;SDS011;51832;48.152;11.530;2023-03-12T01:42:23;5.15;;;3.20;;
56599;SDS011;51832;48.152;11.530;2023-03-12T01:47:24;4.80;;;2.70;;
56599;SDS011;51832;48.152;11.530;2023-03-12T01:52:29;6.10;;;3.30;;
56599;SDS011;51832;48.152;11.530;2023-03-12T01:57:33;5.15;;;3.25;;
56599;SDS011;51832;48.152;11.530;2023-03-12T02:02:37;5.43;;;2.92;;
56599;SDS011;51832;48.152;11.530;2023-03-12T02:07:38;5.38;;;3.05;;
56599;SDS011;51832;48.152;11.530;2023-03-12T02:12:38;5.53;;;3.03;;
56599;SDS011;51832;48.152;11.530;2023-03-12T02:17:39;4.32;;;2.55;;
56599;SDS011;51832;48.152;11.530;2023-03-12T02:22:40;3.20;;;2.70;;
56599;SDS011;51832;48.152;11.530;2023-03-12T02:27:43;5.65;;;3.17;;
56599;SDS011;51832;48.152;11.530;2023-03-12T02:32:45;4.60;;;2.88;;
56599;SDS011;51832;48.152;11.530;2023-03-12T02:37:51;4.10;;;2.75;;
56599;SDS011;51832;48.152;11.530;2023-03-12T02:42:53;4.32;;;3.00;;
56599;SDS011;51832;48.152;11.530;2023-03-12T02:47:55;5.30;;;2.80;;
56599;SDS011;51832;48.152;11.530;2023-03-12T02:52:55;4.68;;;2.72;;
56599;SDS011;51832;48.152;11.530;2023-03-12T02:57:56;3.78;;;2.70;;
56599;SDS011;51832;48.152;11.530;2023-03-12T03:02:59;5.03;;;2.90;;
56599;SDS011;51832;48.152;11.530;2023-03-12T03:08:00;3.95;;;2.67;;
56599;SDS011;51832;48.152;11.530;2023-03-12T03:13:00;4.13;;;2.80;;
56599;SDS011;51832;48.152;11.530;2023-03-12T03:18:01;5.75;;;2.88;;
56599;SDS011;51832;48.152;11.530;2023-03-12T03:23:03;5.05;;;3.13;;
56599;SDS011;51832;48.152;11.530;2023-03-12T03:28:03;4.65;;;3.65;;
56599;SDS011;51832;48.152;11.530;2023-03-12T03:33:03;6.38;;;3.72;;
56599;SDS011;51832;48.152;11.530;2023-03-12T03:38:04;7.97;;;3.72;;
56599;SDS011;51832;48.152;11.530;2023-03-12T03:43:04;4.63;;;3.42;;
56599;SDS011;51832;48.152;11.530;2023-03-12T03:48:05;6.10;;;3.80;;
56599;SDS011;51832;48.152;11.530;2023-03-12T03:53:06;6.05;;;4.30;;
56599;SDS011;51832;48.152;11.530;2023-03-12T03:58:08;5.43;;;3.58;;
56599;SDS011;51832;48.152;11.530;2023-03-12T04:03:09;6.38;;;4.22;;
56599;SDS011;51832;48.152;11.530;2023-03-12T04:08:10;6.30;;;4.28;;
56599;SDS011;51832;48.152;11.530;2023-03-12T04:13:13;7.95;;;4.07;;
56599;SDS011;51832;48.152;11.530;2023-03-12T04:18:14;5.78;;;4.13;;
56599;SDS011;51832;48.152;11.530;2023-03-12T04:23:15;6.80;;;4.40;;
56599;SDS011;51832;48.152;11.530;2023-03-12T04:28:15;6.15;;;4.28;;
56599;SDS011;51832;48.152;11.530;2023-03-12T04:33:15;7.30;;;4.95;;
56599;SDS011;51832;48.152;11.530;2023-03-12T04:38:16;6.50;;;4.35;;
56599;SDS011;51832;48.152;11.530;2023-03-12T04:43:16;7.43;;;4.22;;
56599;SDS011;51832;48.152;11.530;2023-03-12T04:48:19;7.05;;;4.28;;
56599;SDS011;51832;48.152;11.530;2023-03-12T04:53:20;9.18;;;4.82;;
56599;SDS011;51832;48.152;11.530;2023-03-12T04:58:21;7.85;;;4.97;;
56599;SDS011;51832;48.152;11.530;2023-03-12T05:03:21;9.57;;;4.90;;
56599;SDS011;51832;48.152;11.530;2023-03-12T05:08:22;8.10;;;4.72;;
56599;SDS011;51832;48.152;11.530;2023-03-12T05:13:22;7.93;;;5.13;;
56599;SDS011;51832;48.152;11.530;2023-03-12T05:18:23;9.48;;;4.97;;
56599;SDS011;51832;48.152;11.530;2023-03-12T05:23:25;6.30;;;4.70;;
56599;SDS011;51832;48.152;11.530;2023-03-12T05:28:26;9.68;;;5.53;;
56599;SDS011;51832;48.152;11.530;2023-03-12T05:33:27;7.32;;;4.20;;
56599;SDS011;51832;48.152;11.530;2023-03-12T05:38:28;8.80;;;5.05;;
56599;SDS011;51832;48.152;11.530;2023-03-12T05:43:28;7.03;;;4.60;;
56599;SDS011;51832;48.152;11.530;2023-03-12T05:48:29;8.40;;;4.90;;
56599;SDS011;51832;48.152;11.530;2023-03-12T05:53:31;7.90;;;5.15;;
56599;SDS011;51832;48.152;11.530;2023-03-12T05:58:31;7.45;;;4.63;;
56599;SDS011;51832;48.152;11.530;2023-03-12T06:03:33;7.75;;;4.82;;
56599;SDS011;51832;48.152;11.530;2023-03-12T06:08:34;7.78;;;5.00;;
56599;SDS011;51832;48.152;11.530;2023-03-12T06:13:34;7.40;;;3.97;;
56599;SDS011;51832;48.152;11.530;2023-03-12T06:18:35;6.63;;;4.47;;
56599;SDS011;51832;48.152;11.530;2023-03-12T06:23:35;7.78;;;4.43;;
56599;SDS011;51832;48.152;11.530;2023-03-12T06:28:36;6.50;;;3.67;;
56599;SDS011;51832;48.152;11.530;2023-03-12T06:33:37;4.47;;;3.70;;
56599;SDS011;51832;48.152;11.530;2023-03-12T06:38:38;4.90;;;3.55;;
56599;SDS011;51832;48.152;11.530;2023-03-12T06:43:39;5.35;;;3.53;;
56599;SDS011;51832;48.152;11.530;2023-03-12T06:48:40;6.45;;;3.42;;
56599;SDS011;51832;48.152;11.530;2023-03-12T06:53:41;6.30;;;3.40;;
56599;SDS011;51832;48.152;11.530;2023-03-12T06:58:43;3.47;;;2.78;;
56599;SDS011;51832;48.152;11.530;2023-03-12T07:03:44;6.50;;;3.10;;
56599;SDS011;51832;48.152;11.530;2023-03-12T07:08:44;3.70;;;2.40;;
56599;SDS011;51832;48.152;11.530;2023-03-12T07:13:45;3.08;;;2.00;;
56599;SDS011;51832;48.152;11.530;2023-03-12T07:18:46;2.53;;;2.05;;
56599;SDS011;51832;48.152;11.530;2023-03-12T07:23:47;3.08;;;2.00;;
56599;SDS011;51832;48.152;11.530;2023-03-12T07:28:48;3.67;;;2.30;;
56599;SDS011;51832;48.152;11.530;2023-03-12T07:33:49;3.15;;;2.13;;
56599;SDS011;51832;48.152;11.530;2023-03-12T07:38:49;4.25;;;2.33;;
56599;SDS011;51832;48.152;11.530;2023-03-12T07:43:49;2.58;;;2.00;;
56599;SDS011;51832;48.152;11.530;2023-03-12T07:48:50;3.58;;;2.35;;
56599;SDS011;51832;48.152;11.530;2023-03-12T07:53:50;3.40;;;2.22;;
56599;SDS011;51832;48.152;11.530;2023-03-12T07:58:51;3.40;;;2.10;;
56599;SDS011;51832;48.152;11.530;2023-03-12T08:03:51;4.03;;;1.90;;
56599;SDS011;51832;48.152;11.530;2023-03-12T08:08:51;3.08;;;1.98;;
56599;SDS011;51832;48.152;11.530;2023-03-12T08:13:52;2.80;;;2.00;;
56599;SDS011;51832;48.152;11.530;2023-03-12T08:18:52;6.18;;;2.10;;
56599;SDS011;51832;48.152;11.530;2023-03-12T08:23:53;3.03;;;1.95;;
56599;SDS011;51832;48.152;11.530;2023-03-12T08:28:53;5.00;;;2.50;;
56599;SDS011;51832;48.152;11.530;2023-03-12T08:33:53;4.80;;;2.70;;
56599;SDS011;51832;48.152;11.530;2023-03-12T08:38:54;4.38;;;2.65;;
56599;SDS011;51832;48.152;11.530;2023-03-12T08:43:54;4.75;;;2.75;;
56599;SDS011;51832;48.152;11.530;2023-03-12T08:48:55;4.68;;;2.60;;
56599;SDS011;51832;48.152;11.530;2023-03-12T08:53:55;4.50;;;2.33;;
56599;SDS011;51832;48.152;11.530;2023-03-12T08:58:59;4.03;;;2.65;;
56599;SDS011;51832;48.152;11.530;2023-03-12T09:03:59;4.75;;;2.55;;
56599;SDS011;51832;48.152;11.530;2023-03-12T09:09:01;2.28;;;1.83;;
56599;SDS011;51832;48.152;11.530;2023-03-12T09:14:05;2.65;;;2.20;;
56599;SDS011;51832;48.152;11.530;2023-03-12T09:19:05;3.08;;;2.40;;
56599;SDS011;51832;48.152;11.530;2023-03-12T09:24:06;1.83;;;1.55;;
56599;SDS011;51832;48.152;11.530;2023-03-12T09:29:07;2.80;;;1.75;;
56599;SDS011;51832;48.152;11.530;2023-03-12T09:34:07;2.75;;;2.13;;
56599;SDS011;51832;48.152;11.530;2023-03-12T09:39:07;4.38;;;2.80;;
56599;SDS011;51832;48.152;11.530;2023-03-12T09:54:33;2.53;;;1.80;;
56599;SDS011;51832;48.152;11.530;2023-03-12T09:59:57;3.47;;;2.10;;
56599;SDS011;51832;48.152;11.530;2023-03-12T10:04:59;2.45;;;1.67;;
56599;SDS011;51832;48.152;11.530;2023-03-12T10:10:18;2.15;;;1.83;;
56599;SDS011;51832;48.152;11.530;2023-03-12T10:31:25;1.88;;;1.55;;
56599;SDS011;51832;48.152;11.530;2023-03-12T10:36:35;2.03;;;1.63;;
56599;SDS011;51832;48.152;11.530;2023-03-12T10:41:39;2.42;;;1.52;;
56599;SDS011;51832;48.152;11.530;2023-03-12T10:46:50;2.50;;;1.80;;
56599;SDS011;51832;48.152;11.530;2023-03-12T10:52:04;2.58;;;1.88;;
56599;SDS011;51832;48.152;11.530;2023-03-12T10:57:15;1.90;;;1.50;;
56599;SDS011;51832;48.152;11.530;2023-03-12T11:02:27;1.63;;;1.37;;
56599;SDS011;51832;48.152;11.530;2023-03-12T11:07:38;2.67;;;1.67;;
56599;SDS011;51832;48.152;11.530;2023-03-12T11:12:50;2.58;;;1.70;;
56599;SDS011;51832;48.152;11.530;2023-03-12T11:23:25;2.95;;;1.80;;
56599;SDS011;51832;48.152;11.530;2023-03-12T11:28:49;2.47;;;1.55;;
56599;SDS011;51832;48.152;11.530;2023-03-12T11:33:50;2.50;;;1.92;;
56599;SDS011;51832;48.152;11.530;2023-03-12T11:44:16;2.30;;;1.70;;
56599;SDS011;51832;48.152;11.530;2023-03-12T12:05:30;2.47;;;1.63;;
56599;SDS011;51832;48.152;11.530;2023-03-12T12:10:40;4.97;;;1.70;;
56599;SDS011;51832;48.152;11.530;2023-03-12T12:32:01;3.28;;;2.20;;
56599;SDS011;51832;48.152;11.530;2023-03-12T12:42:27;4.18;;;2.25;;
56599;SDS011;51832;48.152;11.530;2023-03-12T12:47:34;4.22;;;2.65;;
56599;SDS011;51832;48.152;11.530;2023-03-12T12:52:41;4.90;;;2.83;;
56599;SDS011;51832;48.152;11.530;2023-03-12T13:03:25;4.07;;;3.00;;
56599;SDS011;51832;48.152;11.530;2023-03-12T13:13:41;3.47;;;2.92;;
56599;SDS011;51832;48.152;11.530;2023-03-12T13:18:59;5.03;;;3.10;;
56599;SDS011;51832;48.152;11.530;2023-03-12T13:24:05;5.97;;;3.33;;
56599;SDS011;51832;48.152;11.530;2023-03-12T13:29:18;4.50;;;3.35;;
56599;SDS011;51832;48.152;11.530;2023-03-12T13:34:42;4.53;;;3.30;;
56599;SDS011;51832;48.152;11.530;2023-03-12T13:39:45;7.43;;;3.67;;
56599;SDS011;51832;48.152;11.530;2023-03-12T13:44:45;6.70;;;3.65;;
56599;SDS011;51832;48.152;11.530;2023-03-12T13:49:51;6.53;;;3.65;;
56599;SDS011;51832;48.152;11.530;2023-03-12T14:00:17;4.43;;;2.63;;
56599;SDS011;51832;48.152;11.530;2023-03-12T14:05:23;5.45;;;3.10;;
56599;SDS011;51832;48.152;11.530;2023-03-12T14:15:47;4.35;;;2.60;;
56599;SDS011;51832;48.152;11.530;2023-03-12T14:21:04;5.05;;;2.42;;
56599;SDS011;51832;48.152;11.530;2023-03-12T14:26:12;3.65;;;1.90;;
56599;SDS011;51832;48.152;11.530;2023-03-12T14:31:23;3.47;;;1.90;;
56599;SDS011;51832;48.152;11.530;2023-03-12T14:36:48;3.25;;;1.67;;
56599;SDS011;51832;48.152;11.530;2023-03-12T14:41:50;1.77;;;1.60;;
56599;SDS011;51832;48.152;11.530;2023-03-12T14:46:58;4.70;;;1.60;;
56599;SDS011;51832;48.152;11.530;2023-03-12T14:52:01;2.58;;;1.20;;
56599;SDS011;51832;48.152;11.530;2023-03-12T14:57:01;1.98;;;1.30;;
56599;SDS011;51832;48.152;11.530;2023-03-12T15:02:13;2.58;;;1.50;;
56599;SDS011;51832;48.152;11.530;2023-03-12T15:07:18;1.60;;;1.25;;
56599;SDS011;51832;48.152;11.530;2023-03-12T15:12:25;3.42;;;1.83;;
56599;SDS011;51832;48.152;11.530;2023-03-12T15:17:30;1.83;;;1.60;;
56599;SDS011;51832;48.152;11.530;2023-03-12T15:22:32;1.95;;;1.13;;
56599;SDS011;51832;48.152;11.530;2023-03-12T15:27:34;2.88;;;0.90;;
56599;SDS011;51832;48.152;11.530;2023-03-12T15:32:35;2.00;;;0.93;;
56599;SDS011;51832;48.152;11.530;2023-03-12T15:37:35;1.05;;;0.95;;
56599;SDS011;51832;48.152;11.530;2023-03-12T15:42:42;2.00;;;0.95;;
56599;SDS011;51832;48.152;11.530;2023-03-12T15:52:59;1.95;;;0.85;;
56599;SDS011;51832;48.152;11.530;2023-03-12T16:03:25;1.00;;;0.80;;
56599;SDS011;51832;48.152;11.530;2023-03-12T16:08:37;0.63;;;0.63;;
56599;SDS011;51832;48.152;11.530;2023-03-12T16:13:40;1.23;;;0.70;;
56599;SDS011;51832;48.152;11.530;2023-03-12T16:18:42;1.67;;;0.85;;
56599;SDS011;51832;48.152;11.530;2023-03-12T16:23:43;2.15;;;0.90;;
56599;SDS011;51832;48.152;11.530;2023-03-12T16:28:43;1.17;;;0.82;;
56599;SDS011;51832;48.152;11.530;2023-03-12T16:33:44;0.93;;;0.80;;
56599;SDS011;51832;48.152;11.530;2023-03-12T16:38:45;0.75;;;0.75;;
56599;SDS011;51832;48.152;11.530;2023-03-12T16:43:49;3.05;;;1.00;;
56599;SDS011;51832;48.152;11.530;2023-03-12T16:48:52;0.98;;;0.70;;
56599;SDS011;51832;48.152;11.530;2023-03-12T16:53:53;1.55;;;0.80;;
56599;SDS011;51832;48.152;11.530;2023-03-12T16:58:55;1.67;;;1.00;;
56599;SDS011;51832;48.152;11.530;2023-03-12T17:04:00;2.65;;;1.17;;
56599;SDS011;51832;48.152;11.530;2023-03-12T17:09:02;1.50;;;0.90;;
56599;SDS011;51832;48.152;11.530;2023-03-12T17:14:04;1.20;;;1.08;;
56599;SDS011;51832;48.152;11.530;2023-03-12T17:19:18;3.35;;;1.25;;
56599;SDS011;51832;48.152;11.530;2023-03-12T17:24:19;1.45;;;1.15;;
56599;SDS011;51832;48.152;11.530;2023-03-12T17:29:21;2.72;;;1.30;;
56599;SDS011;51832;48.152;11.530;2023-03-12T17:34:22;1.52;;;1.08;;
56599;SDS011;51832;48.152;11.530;2023-03-12T17:39:22;2.58;;;1.50;;
56599;SDS011;51832;48.152;11.530;2023-03-12T17:44:23;2.38;;;1.20;;
56599;SDS011;51832;48.152;11.530;2023-03-12T17:49:24;2.28;;;1.30;;
56599;SDS011;51832;48.152;11.530;2023-03-12T17:54:25;2.92;;;1.58;;
56599;SDS011;51832;48.152;11.530;2023-03-12T17:59:25;1.42;;;1.20;;
56599;SDS011;51832;48.152;11.530;2023-03-12T18:04:26;2.45;;;1.02;;
56599;SDS011;51832;48.152;11.530;2023-03-12T18:09:27;4.53;;;1.60;;
56599;SDS011;51832;48.152;11.530;2023-03-12T18:14:27;5.00;;;1.45;;
56599;SDS011;51832;48.152;11.530;2023-03-12T18:19:28;3.08;;;1.40;;
56599;SDS011;51832;48.152;11.530;2023-03-12T18:24:29;2.75;;;1.30;;
56599;SDS011;51832;48.152;11.530;2023-03-12T18:29:29;2.88;;;1.40;;
56599;SDS011;51832;48.152;11.530;2023-03-12T18:34:30;2.58;;;1.33;;
56599;SDS011;51832;48.152;11.530;2023-03-12T18:39:30;3.20;;;1.50;;
56599;SDS011;51832;48.152;11.530;2023-03-12T18:44:31;1.75;;;1.10;;
56599;SDS011;51832;48.152;11.530;2023-03-12T18:49:31;2.75;;;1.30;;
56599;SDS011;51832;48.152;11.530;2023-03-12T18:54:32;1.95;;;1.17;;
56599;SDS011;51832;48.152;11.530;2023-03-12T18:59:32;3.10;;;1.42;;
56599;SDS011;51832;48.152;11.530;2023-03-12T19:04:33;1.45;;;1.20;;
56599;SDS011;51832;48.152;11.530;2023-03-12T19:09:34;1.90;;;1.33;;
56599;SDS011;51832;48.152;11.530;2023-03-12T19:14:34;2.97;;;1.27;;
56599;SDS011;51832;48.152;11.530;2023-03-12T19:19:34;2.30;;;1.17;;
56599;SDS011;51832;48.152;11.530;2023-03-12T19:24:35;2.03;;;1.40;;
56599;SDS011;51832;48.152;11.530;2023-03-12T19:29:35;3.38;;;1.45;;
56599;SDS011;51832;48.152;11.530;2023-03-12T19:34:36;4.43;;;1.50;;
56599;SDS011;51832;48.152;11.530;2023-03-12T19:39:36;4.57;;;1.63;;
56599;SDS011;51832;48.152;11.530;2023-03-12T19:44:36;2.53;;;1.52;;
56599;SDS011;51832;48.152;11.530;2023-03-12T19:49:39;1.92;;;1.20;;
56599;SDS011;51832;48.152;11.530;2023-03-12T19:54:39;2.38;;;1.13;;
56599;SDS011;51832;48.152;11.530;2023-03-12T19:59:41;3.28;;;1.27;;
56599;SDS011;51832;48.152;11.530;2023-03-12T20:04:44;3.67;;;1.30;;
56599;SDS011;51832;48.152;11.530;2023-03-12T20:09:44;3.00;;;1.23;;
56599;SDS011;51832;48.152;11.530;2023-03-12T20:14:45;5.85;;;1.70;;
56599;SDS011;51832;48.152;11.530;2023-03-12T20:19:46;4.55;;;1.42;;
56599;SDS011;51832;48.152;11.530;2023-03-12T20:24:46;3.50;;;1.70;;
56599;SDS011;51832;48.152;11.530;2023-03-12T20:29:47;2.85;;;1.35;;
56599;SDS011;51832;48.152;11.530;2023-03-12T20:34:48;2.97;;;1.55;;
56599;SDS011;51832;48.152;11.530;2023-03-12T20:39:49;1.88;;;1.30;;
56599;SDS011;51832;48.152;11.530;2023-03-12T20:44:49;3.47;;;1.60;;
56599;SDS011;51832;48.152;11.530;2023-03-12T20:49:49;4.50;;;2.03;;
56599;SDS011;51832;48.152;11.530;2023-03-12T20:54:50;3.47;;;1.88;;
56599;SDS011;51832;48.152;11.530;2023-03-12T20:59:50;5.18;;;2.10;;
56599;SDS011;51832;48.152;11.530;2023-03-12T21:04:51;3.60;;;1.70;;
56599;SDS011;51832;48.152;11.530;2023-03-12T21:09:52;2.67;;;1.80;;
56599;SDS011;51832;48.152;11.530;2023-03-12T21:14:53;4.10;;;1.90;;
56599;SDS011;51832;48.152;11.530;2023-03-12T21:19:53;3.13;;;1.57;;
56599;SDS011;51832;48.152;11.530;2023-03-12T21:24:54;4.20;;;1.80;;
56599;SDS011;51832;48.152;11.530;2023-03-12T21:29:54;4.18;;;2.15;;
56599;SDS011;51832;48.152;11.530;2023-03-12T21:34:55;3.38;;;1.52;;
56599;SDS011;51832;48.152;11.530;2023-03-12T21:39:55;2.63;;;1.70;;
56599;SDS011;51832;48.152;11.530;2023-03-12T21:45:00;2.58;;;1.58;;
56599;SDS011;51832;48.152;11.530;2023-03-12T21:50:00;1.90;;;1.40;;
56599;SDS011;51832;48.152;11.530;2023-03-12T21:55:00;4.25;;;2.03;;
56599;SDS011;51832;48.152;11.530;2023-03-12T22:00:01;3.70;;;1.60;;
56599;SDS011;51832;48.152;11.530;2023-03-12T22:05:02;2.20;;;1.30;;
56599;SDS011;51832;48.152;11.530;2023-03-12T22:10:03;3.47;;;1.40;;
56599;SDS011;51832;48.152;11.530;2023-03-12T22:15:05;3.22;;;1.25;;
56599;SDS011;51832;48.152;11.530;2023-03-12T22:20:07;4.55;;;1.45;;
56599;SDS011;51832;48.152;11.530;2023-03-12T22:25:08;4.05;;;1.50;;
56599;SDS011;51832;48.152;11.530;2023-03-12T22:30:08;4.68;;;1.70;;
56599;SDS011;51832;48.152;11.530;2023-03-12T22:35:11;4.80;;;1.50;;
56599;SDS011;51832;48.152;11.530;2023-03-12T22:40:11;2.30;;;1.42;;
56599;SDS011;51832;48.152;11.530;2023-03-12T22:45:12;3.08;;;1.23;;
56599;SDS011;51832;48.152;11.530;2023-03-12T22:50:13;3.03;;;1.20;;
56599;SDS011;51832;48.152;11.530;2023-03-12T22:55:13;3.42;;;1.40;;
56599;SDS011;51832;48.152;11.530;2023-03-12T23:00:14;2.00;;;1.45;;
56599;SDS011;51832;48.152;11.530;2023-03-12T23:05:17;3.08;;;1.25;;
56599;SDS011;51832;48.152;11.530;2023-03-12T23:10:17;4.78;;;1.40;;
56599;SDS011;51832;48.152;11.530;2023-03-12T23:15:18;4.13;;;1.30;;
56599;SDS011;51832;48.152;11.530;2023-03-12T23:20:18;2.83;;;1.23;;
56599;SDS011;51832;48.152;11.530;2023-03-12T23:25:18;3.33;;;1.40;;
56599;SDS011;51832;48.152;11.530;2023-03-12T23:30:19;3.05;;;1.70;;
56599;SDS011;51832;48.152;11.530;2023-03-12T23:35:19;3.95;;;1.70;;
56599;SDS011;51832;48.152;11.530;2023-03-12T23:40:20;3.70;;;1.50;;
56599;SDS011;51832;48.152;11.530;2023-03-12T23:45:20;3.40;;;1.20;;
56599;SDS011;51832;48.152;11.530;2023-03-12T23:50:20;1.60;;;1.40;;
56599;SDS011;51832;48.152;11.530;2023-03-12T23:55:21;3.78;;;1.83;;
